Time;durP1;ratioP1;P1;durP2;ratioP2;P2;SDS_P1;SDS_P2;PMS_P1;PMS_P2;Temp;Humidity;BMP_temperature;BMP_pressure;BME280_temperature;BME280_humidity;BME280_pressure;Samples;Min_cycle;Max_cycle;Signal;HPM_P1;HPM_P2
2023/03/30 00:02:47;;;;;;;5.22;2.65;;;;;;;13.98;100.00;100444.25;10373965;28;20057;-79
2023/03/30 00:07:48;;;;;;;5.97;3.25;;;;;;;13.96;100.00;100438.19;10389736;28;20504;-79
2023/03/30 00:12:51;;;;;;;7.97;2.53;;;;;;;13.92;100.00;100437.84;10388703;28;20080;-79
2023/03/30 00:17:53;;;;;;;3.20;2.90;;;;;;;13.83;100.00;100439.22;10388356;28;20030;-79
2023/03/30 00:22:54;;;;;;;2.92;2.35;;;;;;;13.77;100.00;100451.00;10372545;28;20116;-79
2023/03/30 00:27:54;;;;;;;5.78;2.45;;;;;;;13.73;100.00;100461.53;10374366;28;20057;-79
2023/03/30 00:32:55;;;;;;;3.15;2.85;;;;;;;13.58;100.00;100460.28;10373676;28;20066;-79
2023/03/30 00:37:56;;;;;;;3.17;2.05;;;;;;;13.63;100.00;100446.81;10371674;28;20106;-79
2023/03/30 00:43:09;;;;;;;3.55;2.10;;;;;;;13.73;100.00;100433.50;10372845;28;20034;-79
2023/03/30 00:48:19;;;;;;;9.80;3.33;;;;;;;13.73;100.00;100444.38;10371970;28;20089;-79
2023/03/30 00:53:29;;;;;;;6.47;1.98;;;;;;;13.67;100.00;100428.97;10375641;28;20118;-79
2023/03/30 00:58:30;;;;;;;10.25;2.47;;;;;;;13.62;100.00;100429.63;10394992;28;20088;-79
2023/03/30 01:03:36;;;;;;;9.68;2.42;;;;;;;13.55;100.00;100428.91;10394810;28;20034;-79
2023/03/30 01:08:36;;;;;;;5.05;2.00;;;;;;;13.47;100.00;100410.19;10378616;28;20052;-79
2023/03/30 01:13:38;;;;;;;6.30;2.33;;;;;;;13.46;100.00;100409.38;10363128;28;20030;-79
2023/03/30 01:18:54;;;;;;;4.05;2.00;;;;;;;13.44;100.00;100410.66;10395944;28;20033;-78
2023/03/30 01:24:14;;;;;;;3.58;1.98;;;;;;;13.43;100.00;100395.38;10380745;28;20037;-78
2023/03/30 01:29:27;;;;;;;6.13;2.00;;;;;;;13.44;100.00;100388.88;10393076;28;20049;-79
2023/03/30 01:34:37;;;;;;;5.75;2.47;;;;;;;13.37;100.00;100379.97;10377591;28;20033;-79
2023/03/30 01:39:44;;;;;;;4.15;2.70;;;;;;;13.30;100.00;100373.78;10394966;28;20029;-79
2023/03/30 01:44:52;;;;;;;10.45;3.90;;;;;;;13.17;100.00;100378.28;10379215;28;20045;-79
2023/03/30 01:50:10;;;;;;;3.97;3.42;;;;;;;13.00;100.00;100388.94;10378596;28;20029;-79
2023/03/30 01:55:32;;;;;;;3.13;2.47;;;;;;;13.00;100.00;100396.28;10393805;28;20034;-79
2023/03/30 02:00:32;;;;;;;12.50;2.90;;;;;;;13.12;100.00;100399.91;10376988;28;20030;-79
2023/03/30 02:05:33;;;;;;;3.05;2.72;;;;;;;13.11;100.00;100398.22;10375569;28;20119;-79
2023/03/30 02:10:33;;;;;;;4.90;2.42;;;;;;;13.04;100.00;100392.03;10393250;28;20117;-79
2023/03/30 02:15:45;;;;;;;10.60;2.75;;;;;;;13.03;100.00;100396.66;10392504;28;20034;-79
2023/03/30 02:20:46;;;;;;;2.80;1.85;;;;;;;13.06;100.00;100386.38;10361946;28;20029;-79
2023/03/30 02:25:47;;;;;;;11.90;2.42;;;;;;;13.13;100.00;100385.25;10378101;28;20053;-79
2023/03/30 02:30:47;;;;;;;8.85;3.05;;;;;;;13.03;100.00;100366.75;10374589;28;20057;-79
2023/03/30 02:36:26;;;;;;;4.75;2.63;;;;;;;13.03;100.00;100371.34;10375610;28;20053;-79
2023/03/30 02:41:29;;;;;;;5.70;2.70;;;;;;;13.07;100.00;100378.00;10375793;28;20037;-79
2023/03/30 02:46:54;;;;;;;6.07;2.17;;;;;;;13.12;100.00;100375.44;10375793;28;20029;-79
2023/03/30 02:52:23;;;;;;;13.68;3.22;;;;;;;13.14;100.00;100359.72;10375566;28;20064;-79
2023/03/30 02:57:44;;;;;;;7.38;2.40;;;;;;;13.14;100.00;100369.75;10375464;28;20417;-79
2023/03/30 03:02:51;;;;;;;3.58;1.70;;;;;;;13.08;100.00;100366.09;10390091;28;20487;-79
2023/03/30 03:07:52;;;;;;;;;;;;;;;13.11;100.00;100362.88;10374893;28;20038;-79
2023/03/30 03:12:52;;;;;;;8.00;3.25;;;;;;;13.11;100.00;100362.06;10374313;28;20334;-79
2023/03/30 03:17:53;;;;;;;8.43;2.00;;;;;;;13.12;100.00;100356.41;10389621;28;20030;-79
2023/03/30 03:22:54;;;;;;;7.25;2.70;;;;;;;13.14;100.00;100346.13;10374198;28;20045;-79
2023/03/30 03:27:54;;;;;;;4.57;2.42;;;;;;;13.06;100.00;100351.06;10374119;28;20057;-79
2023/03/30 03:32:55;;;;;;;6.88;3.05;;;;;;;12.99;100.00;100364.72;10389518;28;20088;-79
2023/03/30 03:37:56;;;;;;;2.90;1.90;;;;;;;12.88;100.00;100343.72;10373446;28;20049;-79
2023/03/30 03:42:56;;;;;;;6.88;3.58;;;;;;;12.84;100.00;100337.09;10388586;28;20040;-79
2023/03/30 03:47:57;;;;;;;10.02;2.45;;;;;;;12.74;100.00;100340.31;10373354;28;20460;-79
2023/03/30 03:52:57;;;;;;;4.85;2.88;;;;;;;12.70;100.00;100342.66;10373187;28;20038;-79
2023/03/30 03:57:58;;;;;;;10.90;3.78;;;;;;;12.60;100.00;100342.34;10389007;28;20402;-79
2023/03/30 04:02:58;;;;;;;8.85;3.17;;;;;;;12.47;100.00;100334.31;10373600;28;20054;-79
2023/03/30 04:07:58;;;;;;;14.93;4.97;;;;;;;12.32;100.00;100351.81;10373357;28;20030;-79
2023/03/30 04:12:59;;;;;;;15.00;4.22;;;;;;;12.20;100.00;100350.03;10372073;28;20149;-79
2023/03/30 04:18:00;;;;;;;7.53;4.38;;;;;;;12.07;100.00;100348.25;10373499;28;20046;-78
2023/03/30 04:23:01;;;;;;;5.45;3.47;;;;;;;11.92;100.00;100340.44;10373316;28;20457;-78
2023/03/30 04:28:03;;;;;;;10.77;3.22;;;;;;;11.82;100.00;100335.47;10375411;28;20054;-81
2023/03/30 04:33:04;;;;;;;17.23;4.93;;;;;;;11.76;100.00;100335.50;10385580;28;20119;-81
2023/03/30 04:38:05;;;;;;;26.80;5.97;;;;;;;11.63;100.00;100329.13;10384399;28;20092;-81
2023/03/30 04:43:05;;;;;;;15.02;4.93;;;;;;;11.41;100.00;100338.63;10396486;28;20033;-83
2023/03/30 04:48:06;;;;;;;15.13;5.10;;;;;;;11.15;100.00;100323.34;10379689;28;20061;-81
2023/03/30 04:53:06;;;;;;;17.27;4.68;;;;;;;11.02;100.00;100316.09;10380160;28;20041;-81
2023/03/30 04:58:10;;;;;;;11.93;5.03;;;;;;;10.94;100.00;100322.59;10382035;28;20136;-81
2023/03/30 05:03:10;;;;;;;19.20;4.07;;;;;;;10.82;100.00;100321.59;10363137;28;20389;-81
2023/03/30 05:08:11;;;;;;;15.32;4.57;;;;;;;10.79;100.00;100311.19;10380458;28;20037;-81
2023/03/30 05:13:11;;;;;;;24.20;6.32;;;;;;;10.71;100.00;100306.00;10380686;28;20088;-80
2023/03/30 05:18:12;;;;;;;16.73;4.75;;;;;;;10.59;100.00;100315.81;10381093;28;20093;-81
2023/03/30 05:23:12;;;;;;;17.92;5.78;;;;;;;10.62;100.00;100315.38;10394833;28;20030;-82
2023/03/30 05:28:13;;;;;;;27.92;6.00;;;;;;;10.48;100.00;100333.53;10395566;28;20161;-81
2023/03/30 05:33:13;;;;;;;18.48;5.63;;;;;;;10.46;100.00;100341.88;10379126;28;20040;-81
2023/03/30 05:38:14;;;;;;;17.48;5.00;;;;;;;10.47;100.00;100342.72;10379381;28;20446;-82
2023/03/30 05:43:14;;;;;;;15.20;5.80;;;;;;;10.51;100.00;100353.94;10377821;28;20468;-82
2023/03/30 05:48:14;;;;;;;16.45;5.68;;;;;;;10.69;100.00;100352.25;10378920;28;20069;-82
2023/03/30 05:53:15;;;;;;;24.23;5.78;;;;;;;10.99;100.00;100364.47;10377094;28;20474;-81
2023/03/30 05:58:15;;;;;;;30.67;7.03;;;;;;;11.11;100.00;100370.88;10394163;28;20108;-81
2023/03/30 06:03:16;;;;;;;22.75;7.10;;;;;;;11.11;100.00;100374.44;10393091;28;20041;-82
2023/03/30 06:08:17;;;;;;;19.35;5.82;;;;;;;11.19;100.00;100378.75;10376825;28;20041;-81
2023/03/30 06:13:17;;;;;;;19.27;5.97;;;;;;;11.20;100.00;100380.44;10375534;28;20048;-82
2023/03/30 06:18:18;;;;;;;32.47;5.82;;;;;;;11.30;100.00;100374.56;10377495;28;20038;-81
2023/03/30 06:23:18;;;;;;;25.83;6.40;;;;;;;11.29;100.00;100381.00;10375647;28;20030;-81
2023/03/30 06:28:19;;;;;;;43.78;8.60;;;;;;;11.67;100.00;100381.03;10377146;28;20100;-82
2023/03/30 06:33:19;;;;;;;21.55;6.60;;;;;;;11.79;100.00;100398.28;10392309;28;20469;-82
2023/03/30 06:38:20;;;;;;;23.08;5.45;;;;;;;11.69;100.00;100402.53;10397129;28;20041;-81
2023/03/30 06:43:23;;;;;;;26.05;8.07;;;;;;;12.68;100.00;100409.13;10388275;28;20061;-82
2023/03/30 06:48:23;;;;;;;22.23;6.68;;;;;;;13.82;100.00;100404.09;10392997;28;20032;-82
2023/03/30 06:53:24;;;;;;;22.70;6.82;;;;;;;14.16;100.00;100399.78;10391927;28;20045;-82
2023/03/30 06:58:26;;;;;;;22.33;7.47;;;;;;;14.84;100.00;100410.19;10391881;28;20037;-83
2023/03/30 07:03:28;;;;;;;32.50;6.93;;;;;;;14.62;100.00;100409.97;10378612;28;20026;-82
2023/03/30 07:08:29;;;;;;;14.45;5.80;;;;;;;14.92;100.00;100410.91;10392839;28;20105;-81
2023/03/30 07:13:29;;;;;;;19.85;5.43;;;;;;;13.59;100.00;100421.09;10392866;28;20049;-81
2023/03/30 07:18:30;;;;;;;29.88;5.82;;;;;;;13.36;100.00;100438.97;10374432;28;20037;-81
2023/03/30 07:23:30;;;;;;;19.40;7.20;;;;;;;12.84;100.00;100454.75;10375176;28;20053;-83
2023/03/30 07:28:31;;;;;;;20.73;6.20;;;;;;;12.69;100.00;100460.53;10376323;28;20522;-82
2023/03/30 07:33:31;;;;;;;21.08;7.35;;;;;;;12.46;100.00;100452.16;10390925;28;20030;-82
2023/03/30 07:38:32;;;;;;;29.02;7.47;;;;;;;12.48;100.00;100450.06;10374490;28;20541;-81
2023/03/30 07:43:32;;;;;;;24.58;9.50;;;;;;;12.30;100.00;100467.09;10374080;28;20038;-81
2023/03/30 07:48:33;;;;;;;26.80;8.10;;;;;;;12.28;100.00;100464.63;10372621;28;20030;-81
2023/03/30 07:53:34;;;;;;;38.78;9.05;;;;;;;12.89;100.00;100486.69;10388555;28;20034;-81
2023/03/30 07:58:35;;;;;;;34.25;8.30;;;;;;;13.90;100.00;100475.34;10372847;28;20112;-82
2023/03/30 08:03:36;;;;;;;25.30;7.20;;;;;;;13.87;100.00;100478.50;10392730;28;20428;-82
2023/03/30 08:08:39;;;;;;;18.77;8.25;;;;;;;14.37;100.00;100471.97;10383695;28;20066;-82
2023/03/30 08:13:40;;;;;;;36.97;8.68;;;;;;;15.14;100.00;100482.03;10398316;28;20385;-82
2023/03/30 08:18:40;;;;;;;40.20;9.77;;;;;;;15.77;100.00;100489.44;10398999;28;20034;-82
2023/03/30 08:23:41;;;;;;;28.52;8.82;;;;;;;16.18;100.00;100482.88;10399830;28;20034;-82
2023/03/30 08:28:41;;;;;;;37.60;8.25;;;;;;;16.71;96.47;100484.31;10398070;28;20058;-81
2023/03/30 08:33:41;;;;;;;22.02;8.63;;;;;;;17.11;94.19;100485.25;10383610;28;20145;-81
2023/03/30 08:38:44;;;;;;;28.27;7.05;;;;;;;17.49;89.85;100491.81;10381344;28;20462;-82
2023/03/30 08:43:51;;;;;;;25.52;9.15;;;;;;;17.76;88.64;100509.13;10396999;28;20056;-82
2023/03/30 08:48:52;;;;;;;28.25;8.18;;;;;;;17.69;84.94;100508.50;10381792;28;20440;-82
2023/03/30 08:54:04;;;;;;;28.17;9.10;;;;;;;18.27;81.44;100514.41;10399058;28;20059;-82
2023/03/30 08:59:18;;;;;;;14.40;7.45;;;;;;;18.30;76.96;100506.50;10388488;28;20029;-82
2023/03/30 09:04:26;;;;;;;24.92;8.40;;;;;;;18.51;79.56;100512.19;10385690;28;20026;-81
2023/03/30 09:09:28;;;;;;;19.88;7.72;;;;;;;18.23;74.88;100527.81;10395229;28;20029;-81
2023/03/30 09:14:40;;;;;;;22.33;10.48;;;;;;;17.26;79.09;100520.22;10394518;28;20030;-82
2023/03/30 09:19:54;;;;;;;23.08;8.52;;;;;;;16.17;91.04;100529.53;10380618;28;20037;-81
2023/03/30 09:24:54;;;;;;;22.98;6.55;;;;;;;16.16;91.42;100539.63;10395040;28;20116;-82
2023/03/30 09:29:57;;;;;;;35.13;9.00;;;;;;;17.18;85.01;100535.97;10363985;28;20042;-82
2023/03/30 09:35:17;;;;;;;32.88;8.75;;;;;;;17.23;85.33;100546.19;10377730;28;20030;-82
2023/03/30 09:40:42;;;;;;;27.10;9.13;;;;;;;17.96;77.70;100548.84;10393079;28;20113;-82
2023/03/30 09:45:43;;;;;;;28.20;8.10;;;;;;;18.69;76.94;100533.72;10377600;28;20381;-81
2023/03/30 09:50:46;;;;;;;32.72;10.77;;;;;;;18.83;70.31;100552.56;10395484;28;20057;-82
2023/03/30 09:56:08;;;;;;;19.90;8.32;;;;;;;18.94;72.46;100571.56;10392492;28;20115;-81
2023/03/30 10:01:18;;;;;;;30.58;8.07;;;;;;;18.95;74.18;100576.00;10394342;28;20029;-81
2023/03/30 10:06:20;;;;;;;24.55;8.93;;;;;;;18.54;70.88;100582.97;10392735;28;20056;-81
2023/03/30 10:11:34;;;;;;;25.85;7.32;;;;;;;17.12;78.79;100577.19;10377940;28;20041;-81
2023/03/30 10:16:35;;;;;;;18.00;8.43;;;;;;;17.34;81.13;100588.22;10376818;28;20026;-81
2023/03/30 10:21:36;;;;;;;21.40;8.43;;;;;;;17.65;79.15;100578.56;10392780;28;20386;-82
2023/03/30 10:26:37;;;;;;;18.33;7.03;;;;;;;18.01;74.75;100579.06;10391227;28;20108;-81
2023/03/30 10:31:38;;;;;;;18.42;6.03;;;;;;;18.42;72.82;100594.06;10376911;28;20053;-80
2023/03/30 10:36:39;;;;;;;17.70;7.57;;;;;;;18.46;73.03;100588.91;10392854;28;20108;-81
2023/03/30 10:41:40;;;;;;;24.70;8.43;;;;;;;18.22;71.25;100589.19;10391173;28;20084;-81
2023/03/30 10:46:40;;;;;;;17.92;7.45;;;;;;;17.65;79.17;100601.28;10390942;28;20034;-81
2023/03/30 10:51:57;;;;;;;20.05;6.50;;;;;;;17.00;82.21;100603.78;10376099;28;20389;-82
2023/03/30 10:57:01;;;;;;;28.40;7.72;;;;;;;16.06;87.17;100598.69;10392184;28;20121;-81
2023/03/30 11:02:11;;;;;;;28.60;7.30;;;;;;;15.72;89.81;100595.78;10357778;28;20455;-80
2023/03/30 11:07:17;;;;;;;10.38;5.97;;;;;;;15.26;94.32;100611.88;10390893;28;20112;-81
2023/03/30 11:12:19;;;;;;;27.30;7.88;;;;;;;15.33;95.72;100611.78;10377183;28;20026;-81
2023/03/30 11:17:27;;;;;;;38.42;8.40;;;;;;;15.06;99.14;100619.53;10391262;28;20072;-81
2023/03/30 11:22:34;;;;;;;21.42;7.75;;;;;;;14.78;100.00;100617.47;10374760;28;20535;-81
2023/03/30 11:27:38;;;;;;;32.67;7.07;;;;;;;14.44;100.00;100627.97;10374572;28;20470;-81
2023/03/30 11:33:17;;;;;;;43.58;9.25;;;;;;;14.00;100.00;100624.50;10373106;28;20034;-80
2023/03/30 11:38:23;;;;;;;34.13;9.18;;;;;;;13.78;100.00;100623.28;10387555;28;20077;-82
2023/03/30 11:43:25;;;;;;;37.92;9.75;;;;;;;13.65;100.00;100633.25;10389305;28;20386;-80
2023/03/30 11:48:37;;;;;;;42.22;10.85;;;;;;;13.59;100.00;100622.44;10389052;28;20131;-80
2023/03/30 11:54:02;;;;;;;38.88;10.68;;;;;;;13.54;100.00;100634.00;10376379;28;20033;-80
2023/03/30 11:59:05;;;;;;;38.92;8.43;;;;;;;13.18;100.00;100640.16;10373421;28;20114;-80
2023/03/30 12:04:10;;;;;;;26.85;9.75;;;;;;;12.95;100.00;100638.81;10389790;28;20036;-80
2023/03/30 12:09:52;;;;;;;31.98;9.57;;;;;;;12.87;100.00;100651.88;10388336;28;20048;-80
2023/03/30 12:15:13;;;;;;;45.78;9.50;;;;;;;12.76;100.00;100651.50;10311220;28;20494;-79
2023/03/30 12:20:32;;;;;;;41.60;10.55;;;;;;;12.48;100.00;100646.44;10359043;28;20042;-79
2023/03/30 12:25:37;;;;;;;39.45;9.32;;;;;;;12.38;100.00;100659.66;10372436;28;20093;-77
2023/03/30 12:30:52;;;;;;;43.83;11.57;;;;;;;12.95;100.00;100646.16;10372180;28;20187;-79
2023/03/30 12:35:57;;;;;;;26.60;9.77;;;;;;;13.19;100.00;100650.78;10388912;28;20026;-80
2023/03/30 12:41:21;;;;;;;26.05;9.80;;;;;;;13.61;100.00;100647.53;10389177;28;20044;-80
2023/03/30 12:46:36;;;;;;;28.27;9.00;;;;;;;13.48;100.00;100637.63;10386402;28;20040;-81
2023/03/30 12:51:41;;;;;;;22.98;7.68;;;;;;;13.51;100.00;100642.59;10393801;28;20460;-83
2023/03/30 12:57:13;;;;;;;28.17;10.10;;;;;;;14.60;100.00;100635.53;10379046;28;20049;-81
2023/03/30 13:03:05;;;;;;;34.63;9.80;;;;;;;14.43;100.00;100639.94;10379628;28;20074;-82
2023/03/30 13:08:20;;;;;;;49.03;12.07;;;;;;;14.15;100.00;100641.31;10356419;28;20100;-81
2023/03/30 13:13:53;;;;;;;26.23;9.05;;;;;;;14.53;100.00;100634.78;10394985;28;20030;-81
2023/03/30 13:18:54;;;;;;;31.25;10.57;;;;;;;15.58;100.00;100636.94;10378517;28;20431;-82
2023/03/30 13:24:03;;;;;;;36.38;9.52;;;;;;;16.32;100.00;100624.66;10378692;28;20112;-81
2023/03/30 13:29:10;;;;;;;26.73;8.60;;;;;;;16.04;100.00;100626.25;10378809;28;20474;-81
2023/03/30 13:34:10;;;;;;;22.15;8.57;;;;;;;16.80;100.00;100626.16;10396715;28;20064;-80
2023/03/30 13:39:41;;;;;;;31.27;7.45;;;;;;;17.12;100.00;100612.75;10380417;28;20124;-81
2023/03/30 13:44:54;;;;;;;30.45;9.38;;;;;;;17.28;100.00;100600.97;10373133;28;20038;-80
2023/03/30 13:50:03;;;;;;;25.23;7.65;;;;;;;16.83;100.00;100620.19;10394756;28;20042;-82
2023/03/30 13:55:04;;;;;;;15.05;6.13;;;;;;;16.98;100.00;100603.22;10376323;28;20026;-81
2023/03/30 14:00:27;;;;;;;32.38;7.63;;;;;;;16.95;100.00;100607.28;10392399;28;20323;-81
2023/03/30 14:05:27;;;;;;;16.20;6.32;;;;;;;17.10;100.00;100593.00;10391453;28;20459;-81
2023/03/30 14:10:28;;;;;;;14.98;6.30;;;;;;;17.05;99.40;100598.41;10392801;28;20038;-81
2023/03/30 14:15:34;;;;;;;21.52;7.50;;;;;;;17.02;96.90;100598.91;10391975;28;20470;-81
2023/03/30 14:20:52;;;;;;;29.70;7.07;;;;;;;16.64;96.66;100594.94;10378604;28;20061;-81
2023/03/30 14:25:56;;;;;;;19.13;8.43;;;;;;;16.78;99.59;100593.56;10394842;28;20054;-81
2023/03/30 14:31:03;;;;;;;22.80;8.93;;;;;;;16.49;100.00;100604.47;10392057;28;20116;-81
2023/03/30 14:36:07;;;;;;;15.93;4.70;;;;;;;16.48;98.09;100602.84;10391772;28;20490;-80
2023/03/30 14:41:27;;;;;;;19.73;6.90;;;;;;;16.19;99.14;100606.63;10393019;28;20108;-80
2023/03/30 14:46:38;;;;;;;20.27;6.22;;;;;;;16.32;100.00;100587.22;10389625;28;20025;-80
2023/03/30 14:51:42;;;;;;;17.52;6.55;;;;;;;15.93;98.08;100588.88;10375677;28;20512;-81
2023/03/30 14:56:57;;;;;;;18.52;6.22;;;;;;;15.43;100.00;100608.47;10358251;28;20036;-80
2023/03/30 15:01:57;;;;;;;18.23;7.30;;;;;;;15.23;100.00;100592.44;10389994;28;20034;-81
2023/03/30 15:06:58;;;;;;;19.58;6.68;;;;;;;14.77;100.00;100594.00;10376296;28;20033;-81
2023/03/30 15:12:00;;;;;;;14.25;6.30;;;;;;;14.25;100.00;100593.66;10390463;28;20505;-81
2023/03/30 15:17:01;;;;;;;16.98;6.65;;;;;;;13.96;100.00;100587.91;10390876;28;20172;-80
2023/03/30 15:22:12;;;;;;;12.57;6.32;;;;;;;13.68;100.00;100583.81;10389381;28;20354;-80
2023/03/30 15:27:13;;;;;;;19.42;8.00;;;;;;;13.61;100.00;100591.22;10358853;28;20085;-80
2023/03/30 15:32:18;;;;;;;26.60;9.13;;;;;;;13.40;100.00;100570.75;10390405;28;20069;-80
2023/03/30 15:37:21;;;;;;;19.85;7.18;;;;;;;13.38;100.00;100572.84;10394512;28;20038;-81
2023/03/30 15:42:30;;;;;;;45.60;6.93;;;;;;;13.22;100.00;100585.09;10389851;28;20068;-80
2023/03/30 15:47:30;;;;;;;33.00;8.23;;;;;;;13.26;100.00;100591.78;10389286;28;20041;-80
2023/03/30 15:52:35;;;;;;;19.40;6.72;;;;;;;13.07;100.00;100584.59;10372480;28;20057;-81
2023/03/30 15:57:35;;;;;;;17.50;5.47;;;;;;;13.18;100.00;100566.75;10390026;28;20034;-80
2023/03/30 16:02:38;;;;;;;14.32;5.85;;;;;;;13.50;100.00;100567.50;10374267;28;20435;-80
2023/03/30 16:07:40;;;;;;;18.63;6.25;;;;;;;13.37;100.00;100567.63;10390936;28;20042;-81
2023/03/30 16:12:44;;;;;;;20.83;5.78;;;;;;;13.34;100.00;100568.09;10389145;28;20080;-80
2023/03/30 16:17:45;;;;;;;14.32;5.22;;;;;;;13.26;100.00;100572.75;10373300;28;20026;-80
2023/03/30 16:22:46;;;;;;;18.45;6.05;;;;;;;13.10;100.00;100554.25;10374132;28;20140;-80
2023/03/30 16:27:46;;;;;;;9.45;5.70;;;;;;;13.08;100.00;100547.34;10380648;28;20073;-80
2023/03/30 16:32:47;;;;;;;13.18;6.25;;;;;;;12.99;100.00;100546.81;10363662;28;20053;-81
2023/03/30 16:37:47;;;;;;;26.58;5.30;;;;;;;12.86;100.00;100546.91;10396807;28;20121;-80
2023/03/30 16:42:48;;;;;;;16.10;6.30;;;;;;;12.77;100.00;100543.66;10396675;28;20069;-81
2023/03/30 16:47:48;;;;;;;25.38;5.80;;;;;;;12.71;100.00;100541.81;10396473;28;20059;-81
2023/03/30 16:52:49;;;;;;;18.67;6.53;;;;;;;12.61;100.00;100550.44;10379984;28;20511;-81
2023/03/30 16:57:50;;;;;;;14.75;5.28;;;;;;;12.60;100.00;100556.09;10382258;28;20409;-81
2023/03/30 17:02:50;;;;;;;16.98;5.35;;;;;;;12.61;100.00;100566.75;10396965;28;20038;-81
2023/03/30 17:07:54;;;;;;;18.08;6.28;;;;;;;12.60;100.00;100556.91;10362756;28;20053;-81
2023/03/30 17:12:54;;;;;;;25.42;6.68;;;;;;;12.48;100.00;100550.53;10395897;28;20112;-80
2023/03/30 17:17:55;;;;;;;30.30;7.43;;;;;;;12.48;100.00;100561.41;10379873;28;20041;-80
2023/03/30 17:22:55;;;;;;;19.30;6.68;;;;;;;12.38;100.00;100551.03;10378986;28;20387;-81
2023/03/30 17:27:56;;;;;;;22.38;5.00;;;;;;;12.34;100.00;100561.47;10379229;28;20077;-82
2023/03/30 17:32:57;;;;;;;18.23;7.45;;;;;;;12.26;100.00;100555.47;10379285;28;20030;-81
2023/03/30 17:37:58;;;;;;;26.38;7.63;;;;;;;12.13;100.00;100567.22;10394272;28;20044;-80
2023/03/30 17:42:59;;;;;;;31.92;6.97;;;;;;;12.01;100.00;100564.34;10379567;28;20033;-82
2023/03/30 17:48:00;;;;;;;22.15;6.78;;;;;;;11.95;100.00;100581.50;10379215;28;20034;-81
2023/03/30 17:53:01;;;;;;;16.83;5.90;;;;;;;11.82;100.00;100566.06;10397609;28;20109;-81
2023/03/30 17:58:01;;;;;;;19.02;7.20;;;;;;;11.78;100.00;100569.44;10378512;28;20034;-81
2023/03/30 18:03:02;;;;;;;30.30;7.95;;;;;;;11.64;100.00;100571.31;10361748;28;20084;-81
2023/03/30 18:08:02;;;;;;;21.40;6.90;;;;;;;11.62;100.00;100565.28;10395302;28;20046;-80
2023/03/30 18:13:03;;;;;;;22.17;5.85;;;;;;;11.52;100.00;100554.03;10378984;28;20022;-81
2023/03/30 18:18:04;;;;;;;14.35;4.97;;;;;;;11.45;100.00;100555.94;10392259;28;20033;-81
2023/03/30 18:23:04;;;;;;;16.20;4.82;;;;;;;11.37;100.00;100560.53;10376273;28;20029;-81
2023/03/30 18:28:09;;;;;;;20.40;6.55;;;;;;;11.28;100.00;100553.66;10393391;28;20056;-81
2023/03/30 18:33:10;;;;;;;24.50;6.80;;;;;;;11.20;100.00;100548.47;10391396;28;20030;-81
2023/03/30 18:38:11;;;;;;;21.63;6.35;;;;;;;11.10;100.00;100548.91;10375168;28;20465;-78
2023/03/30 18:43:12;;;;;;;22.20;6.50;;;;;;;11.04;100.00;100549.75;10391061;28;20071;-81
2023/03/30 18:48:13;;;;;;;31.15;7.57;;;;;;;11.02;100.00;100559.94;10358157;28;20036;-82
2023/03/30 18:53:18;;;;;;;33.13;7.10;;;;;;;10.94;100.00;100543.88;10374380;28;20076;-82
2023/03/30 18:58:23;;;;;;;21.25;7.55;;;;;;;10.90;100.00;100542.66;10390998;28;20458;-82
2023/03/30 19:03:26;;;;;;;32.25;8.35;;;;;;;10.88;100.00;100532.03;10390673;28;20034;-82
2023/03/30 19:08:27;;;;;;;18.38;6.93;;;;;;;10.82;100.00;100534.75;10373621;28;20382;-78
2023/03/30 19:13:28;;;;;;;36.80;8.48;;;;;;;10.83;100.00;100534.53;10374562;28;20034;-81
2023/03/30 19:18:28;;;;;;;21.83;5.72;;;;;;;10.78;100.00;100533.47;10376598;28;20044;-81
2023/03/30 19:23:28;;;;;;;36.90;8.90;;;;;;;10.77;100.00;100539.94;10378236;28;20033;-82
2023/03/30 19:28:29;;;;;;;24.63;7.85;;;;;;;10.76;100.00;100536.41;10391308;28;20054;-83
2023/03/30 19:33:30;;;;;;;26.98;7.07;;;;;;;10.75;100.00;100542.84;10377313;28;20042;-81
2023/03/30 19:38:30;;;;;;;28.13;7.38;;;;;;;10.76;100.00;100541.81;10391054;28;20129;-82
2023/03/30 19:43:31;;;;;;;36.85;8.43;;;;;;;10.70;100.00;100534.53;10372912;28;20022;-79
2023/03/30 19:48:31;;;;;;;25.25;7.82;;;;;;;10.70;100.00;100531.81;10374941;28;20042;-78
2023/03/30 19:53:31;;;;;;;29.40;8.52;;;;;;;10.67;100.00;100514.09;10373678;28;20430;-81
2023/03/30 19:58:32;;;;;;;31.42;8.77;;;;;;;10.66;100.00;100517.03;10373020;28;20061;-78
2023/03/30 20:03:36;;;;;;;29.73;7.82;;;;;;;10.64;100.00;100509.09;10374549;28;20094;-78
2023/03/30 20:08:38;;;;;;;31.80;8.77;;;;;;;10.64;100.00;100506.38;10371470;28;20029;-79
2023/03/30 20:13:44;;;;;;;26.05;8.70;;;;;;;10.60;100.00;100502.44;10373686;28;20037;-79
2023/03/30 20:18:49;;;;;;;25.10;7.67;;;;;;;10.60;100.00;100509.72;10374436;28;20124;-81
2023/03/30 20:23:49;;;;;;;28.50;9.20;;;;;;;10.58;100.00;100503.69;10373321;28;20030;-82
2023/03/30 20:28:50;;;;;;;18.33;7.63;;;;;;;10.56;100.00;100508.47;10388352;28;20058;-81
2023/03/30 20:33:52;;;;;;;28.23;6.97;;;;;;;10.54;100.00;100511.38;10372947;28;20390;-81
2023/03/30 20:38:54;;;;;;;28.88;8.05;;;;;;;10.57;100.00;100504.72;10373992;28;20037;-80
2023/03/30 20:43:55;;;;;;;27.08;7.45;;;;;;;10.56;100.00;100500.34;10373485;28;20025;-79
2023/03/30 20:49:00;;;;;;;16.42;6.47;;;;;;;10.54;100.00;100483.47;10375205;28;20093;-80
2023/03/30 20:54:01;;;;;;;24.15;6.97;;;;;;;10.48;100.00;100485.13;10372777;28;20543;-82
2023/03/30 20:59:02;;;;;;;34.33;9.98;;;;;;;10.43;100.00;100480.34;10371763;28;20033;-81
2023/03/30 21:04:03;;;;;;;30.48;8.10;;;;;;;10.48;100.00;100475.13;10371967;28;20438;-81
2023/03/30 21:09:04;;;;;;;34.88;7.32;;;;;;;10.41;100.00;100471.59;10372823;28;20029;-81
2023/03/30 21:14:06;;;;;;;38.03;10.75;;;;;;;10.38;100.00;100460.34;10396489;28;20084;-82
2023/03/30 21:19:07;;;;;;;31.98;8.85;;;;;;;10.36;100.00;100451.59;10380335;28;20036;-77
2023/03/30 21:24:09;;;;;;;26.52;7.60;;;;;;;10.33;100.00;100443.91;10378505;28;20042;-76
2023/03/30 21:29:09;;;;;;;26.10;7.20;;;;;;;10.28;100.00;100439.13;10395925;28;20050;-83
2023/03/30 21:34:10;;;;;;;20.35;7.07;;;;;;;10.28;100.00;100431.00;10378875;28;20478;-80
2023/03/30 21:39:11;;;;;;;27.40;8.35;;;;;;;10.30;100.00;100434.31;10380238;28;20073;-82
2023/03/30 21:44:11;;;;;;;23.55;5.97;;;;;;;10.31;100.00;100433.28;10361797;28;20069;-81
2023/03/30 21:49:11;;;;;;;20.65;5.80;;;;;;;10.33;100.00;100416.81;10378541;28;20068;-81
2023/03/30 21:54:12;;;;;;;16.75;5.05;;;;;;;10.31;100.00;100422.47;10377848;28;20069;-81
2023/03/30 21:59:13;;;;;;;22.52;7.90;;;;;;;10.24;100.00;100410.75;10378405;28;20430;-81
2023/03/30 22:04:13;;;;;;;14.68;7.13;;;;;;;10.21;100.00;100411.16;10377960;28;20030;-81
2023/03/30 22:09:14;;;;;;;22.90;5.63;;;;;;;10.22;100.00;100405.56;10393836;28;20038;-81
2023/03/30 22:14:14;;;;;;;12.18;4.57;;;;;;;10.23;100.00;100414.50;10376750;28;20422;-82
2023/03/30 22:19:17;;;;;;;22.40;5.25;;;;;;;10.26;100.00;100406.00;10381329;28;20069;-81
2023/03/30 22:24:19;;;;;;;24.88;7.53;;;;;;;10.28;100.00;100397.69;10375459;28;20033;-80
2023/03/30 22:29:19;;;;;;;14.00;5.60;;;;;;;10.26;100.00;100378.94;10391186;28;20053;-81
2023/03/30 22:34:20;;;;;;;11.10;4.75;;;;;;;10.11;100.00;100373.69;10375882;28;20044;-81
2023/03/30 22:39:20;;;;;;;33.05;6.72;;;;;;;10.19;100.00;100362.69;10376659;28;20037;-81
2023/03/30 22:44:21;;;;;;;36.05;6.50;;;;;;;10.06;100.00;100356.44;10376352;28;20041;-81
2023/03/30 22:49:23;;;;;;;20.77;6.40;;;;;;;9.94;100.00;100342.69;10390829;28;20065;-81
2023/03/30 22:54:24;;;;;;;13.05;6.35;;;;;;;9.93;100.00;100336.47;10391211;28;20072;-80